Freeport, Texas
Current Conditions -  °F | °C
As of 3:53 AM on Saturday 20 Dec 2014 (Local Time) from KLBX Reporting Station
Overcast Overcast  
Wind Chill: 52°   Ceiling: 700
Heat Index: 52°   Visibility: 10mi
Dew Point: 51°   Wind: 13mph
Humidity: 97%   Direction: 10°N
Pressure: 30.12"   Gusts: NA
Location:  28.95°N, 95.34°W
Report Text: KLBX 200953Z AUTO 01011KT 10SM OVC007 11/11 A3012 RMK AO2 SLP199 T01110106
Loading
Personal Weather Stations






























Interactive Weather Map New forecast layout! Learn more

10-Day Weather Forecast

Advertisements
Track Severe Weather on mobile